createdAt,value
2018-02-13T00:00:40.623Z,100233.88
2018-02-13T00:03:08.215Z,100232.25
2018-02-13T00:05:35.810Z,100233.75
2018-02-13T00:08:03.384Z,100229.25
2018-02-13T00:10:30.876Z,100234.45
2018-02-13T00:12:58.349Z,100238.48
2018-02-13T00:15:25.954Z,100241.32
2018-02-13T00:17:53.394Z,100235.62
2018-02-13T00:20:20.877Z,100234.39
2018-02-13T00:22:50.124Z,100244.86
2018-02-13T00:25:17.718Z,100243.44
2018-02-13T00:27:45.332Z,100242.34
2018-02-13T00:30:12.847Z,100243.58
2018-02-13T00:32:40.337Z,100242.45
2018-02-13T00:35:07.818Z,100235.91
2018-02-13T00:37:35.517Z,100246.54
2018-02-13T00:40:02.999Z,100244.94
2018-02-13T00:42:30.470Z,100240.97
2018-02-13T00:44:57.936Z,100236.62
2018-02-13T00:47:25.412Z,100237.67
2018-02-13T00:49:53.292Z,100242.24
2018-02-13T00:52:20.835Z,100244.87
2018-02-13T00:54:48.353Z,100242.25
2018-02-13T00:57:15.876Z,100242.45
2018-02-13T00:59:43.394Z,100244.89
2018-02-13T01:02:10.878Z,100243.97
2018-02-13T01:04:38.353Z,100247.25
2018-02-13T01:07:05.949Z,100248.08
2018-02-13T01:09:33.389Z,100249.39
2018-02-13T01:12:04.451Z,100250.41
2018-02-13T01:14:32.422Z,100247.85
2018-02-13T01:17:07.765Z,100254.32
2018-02-13T01:19:35.222Z,100248.56
2018-02-13T01:22:02.704Z,100244.17
2018-02-13T01:24:30.197Z,100245.36
2018-02-13T01:26:57.688Z,100250.02
2018-02-13T01:29:25.262Z,100253.03
2018-02-13T01:31:52.739Z,100244.02
2018-02-13T01:34:20.284Z,100248.98
2018-02-13T01:36:47.758Z,100254.64
2018-02-13T01:39:15.327Z,100253.13
2018-02-13T01:41:42.818Z,100253.61
2018-02-13T01:44:10.371Z,100249.55
2018-02-13T01:46:37.841Z,100251.89
2018-02-13T01:49:05.329Z,100251.13
2018-02-13T01:51:32.882Z,100250.95
2018-02-13T01:54:00.350Z,100248.03
2018-02-13T01:56:27.820Z,100248.73
2018-02-13T01:58:55.293Z,100246.81
2018-02-13T02:01:22.764Z,100246.33
2018-02-13T02:03:50.248Z,100252.20
2018-02-13T02:06:17.797Z,100253.20
2018-02-13T02:08:45.269Z,100258.68
2018-02-13T02:11:12.846Z,100249.94
2018-02-13T02:13:40.300Z,100254.70
2018-02-13T02:16:07.783Z,100256.34
2018-02-13T02:18:35.354Z,100260.80
2018-02-13T02:21:02.960Z,100254.72
2018-02-13T02:23:30.502Z,100253.31
2018-02-13T02:25:58.112Z,100253.02
2018-02-13T02:28:25.561Z,100251.02
2018-02-13T02:30:53.045Z,100246.50
2018-02-13T02:33:20.534Z,100255.02
2018-02-13T02:35:48.025Z,100253.53
2018-02-13T02:38:15.571Z,100252.93
2018-02-13T02:40:43.041Z,100258.20
2018-02-13T02:43:10.506Z,100251.92
2018-02-13T02:45:38.035Z,100254.65
2018-02-13T02:48:05.549Z,100257.20
2018-02-13T02:50:33.085Z,100252.73
2018-02-13T02:53:00.578Z,100252.84
2018-02-13T02:55:28.055Z,100257.81
2018-02-13T02:57:55.587Z,100252.03
2018-02-13T03:00:23.071Z,100257.21
2018-02-13T03:02:50.640Z,100249.70
2018-02-13T03:05:18.210Z,100246.68
2018-02-13T03:07:45.693Z,100251.33
2018-02-13T03:10:13.179Z,100249.72
2018-02-13T03:12:40.725Z,100252.84
2018-02-13T03:15:08.176Z,100246.25
2018-02-13T03:17:35.668Z,100248.09
2018-02-13T03:20:03.133Z,100257.92
2018-02-13T03:22:30.593Z,100258.72
2018-02-13T03:24:58.050Z,100250.01
2018-02-13T03:27:25.506Z,100249.00
2018-02-13T03:29:52.977Z,100242.91
2018-02-13T03:32:20.455Z,100240.28
2018-02-13T03:34:47.936Z,100244.64
2018-02-13T03:37:15.425Z,100250.73
2018-02-13T03:39:42.985Z,100244.05
2018-02-13T03:42:10.555Z,100249.49
2018-02-13T03:44:38.012Z,100248.20
2018-02-13T03:47:05.545Z,100255.89
2018-02-13T03:49:33.030Z,100253.97
2018-02-13T03:52:00.503Z,100261.23
2018-02-13T03:54:28.004Z,100258.91
2018-02-13T03:56:55.469Z,100259.81
2018-02-13T03:59:23.059Z,100254.55
2018-02-13T04:01:50.537Z,100260.92
2018-02-13T04:04:18.043Z,100263.25
2018-02-13T04:06:45.552Z,100259.98
2018-02-13T04:09:13.029Z,100262.39
2018-02-13T04:11:40.500Z,100260.68
2018-02-13T04:14:07.980Z,100257.41
2018-02-13T04:16:35.441Z,100259.11
2018-02-13T04:19:03.675Z,100264.47
2018-02-13T04:21:31.148Z,100263.75
2018-02-13T04:23:58.612Z,100261.97
2018-02-13T04:26:26.150Z,100262.91
2018-02-13T04:28:53.702Z,100262.08
2018-02-13T04:31:21.188Z,100264.97
2018-02-13T04:33:48.664Z,100259.60
2018-02-13T04:36:16.160Z,100263.14
2018-02-13T04:38:43.633Z,100263.03
2018-02-13T04:41:11.124Z,100260.47
2018-02-13T04:43:38.592Z,100262.80
2018-02-13T04:46:06.113Z,100260.25
2018-02-13T04:48:33.590Z,100264.92
2018-02-13T04:51:01.135Z,100268.84
2018-02-13T04:53:28.613Z,100272.23
2018-02-13T04:55:56.161Z,100271.83
2018-02-13T04:58:23.638Z,100270.84
2018-02-13T05:00:51.111Z,100271.97
2018-02-13T05:03:18.607Z,100265.45
2018-02-13T05:05:46.082Z,100271.42
2018-02-13T05:08:13.630Z,100277.55
2018-02-13T05:10:41.156Z,100273.65
2018-02-13T05:13:08.629Z,100269.08
2018-02-13T05:15:36.097Z,100267.83
2018-02-13T05:18:03.572Z,100275.84
2018-02-13T05:20:31.089Z,100278.72
2018-02-13T05:22:58.577Z,100273.28
2018-02-13T05:25:26.048Z,100271.46
2018-02-13T05:27:53.582Z,100272.59
2018-02-13T05:30:21.015Z,100274.53
2018-02-13T05:32:48.485Z,100274.59
2018-02-13T05:35:15.959Z,100282.44
2018-02-13T05:37:43.464Z,100277.54
2018-02-13T05:40:10.924Z,100282.27
2018-02-13T05:42:38.417Z,100282.70
2018-02-13T05:45:05.899Z,100279.78
2018-02-13T05:47:33.380Z,100281.78
2018-02-13T05:50:01.016Z,100282.88
2018-02-13T05:52:28.711Z,100283.83
2018-02-13T05:54:56.199Z,100281.48
2018-02-13T05:57:23.676Z,100275.47
2018-02-13T05:59:51.222Z,100282.75
2018-02-13T06:02:18.740Z,100281.59
2018-02-13T06:04:46.252Z,100290.41
2018-02-13T06:07:13.737Z,100287.26
2018-02-13T06:09:41.288Z,100288.28
2018-02-13T06:12:08.776Z,100289.23
2018-02-13T06:14:36.333Z,100284.33
2018-02-13T06:17:03.801Z,100287.67
2018-02-13T06:19:31.275Z,100289.31
2018-02-13T06:21:58.754Z,100292.81
2018-02-13T06:24:26.467Z,100297.11
2018-02-13T06:26:53.937Z,100297.11
2018-02-13T06:29:21.433Z,100291.23
2018-02-13T06:31:48.943Z,100296.81
2018-02-13T06:34:16.416Z,100289.59
2018-02-13T06:36:43.909Z,100298.55
2018-02-13T06:39:11.543Z,100294.01
2018-02-13T06:41:39.126Z,100298.00
2018-02-13T06:44:06.595Z,100298.22
2018-02-13T06:46:34.515Z,100296.58
2018-02-13T06:49:01.994Z,100291.06
2018-02-13T06:51:29.470Z,100296.89
2018-02-13T06:53:56.944Z,100295.47
2018-02-13T06:56:24.417Z,100298.55
2018-02-13T06:58:51.881Z,100302.11
2018-02-13T07:01:19.348Z,100299.38
2018-02-13T07:03:46.825Z,100304.57
2018-02-13T07:06:14.335Z,100303.12
2018-02-13T07:08:41.802Z,100307.45
2018-02-13T07:11:09.277Z,100303.80
2018-02-13T07:13:36.749Z,100300.22
2018-02-13T07:16:04.244Z,100300.80
2018-02-13T07:18:31.722Z,100302.16
2018-02-13T07:20:59.253Z,100306.93
2018-02-13T07:23:26.725Z,100302.22
2018-02-13T07:25:54.302Z,100304.73
2018-02-13T07:28:21.792Z,100308.53
2018-02-13T07:30:49.339Z,100303.18
2018-02-13T07:33:16.798Z,100307.88
2018-02-13T07:35:44.384Z,100302.03
2018-02-13T07:38:11.867Z,100305.63
2018-02-13T07:40:39.429Z,100304.30
2018-02-13T07:43:06.932Z,100313.72
2018-02-13T07:45:34.475Z,100309.23
2018-02-13T07:48:02.027Z,100314.23
2018-02-13T07:50:29.509Z,100308.78
2018-02-13T07:52:56.985Z,100309.81
2018-02-13T07:55:24.566Z,100314.37
2018-02-13T07:57:52.038Z,100312.87
2018-02-13T08:00:19.605Z,100313.36
2018-02-13T08:02:47.090Z,100310.28
2018-02-13T08:05:14.582Z,100303.36
2018-02-13T08:07:42.054Z,100298.28
2018-02-13T08:10:09.565Z,100298.12
2018-02-13T08:12:37.030Z,100305.66
2018-02-13T08:15:04.589Z,100304.33
2018-02-13T08:17:32.098Z,100304.39
2018-02-13T08:19:59.616Z,100305.32
2018-02-13T08:22:27.096Z,100300.33
2018-02-13T08:24:54.631Z,100296.10
2018-02-13T08:27:22.161Z,100298.47
2018-02-13T08:29:49.743Z,100298.75
2018-02-13T08:32:17.214Z,100296.77
2018-02-13T08:34:44.785Z,100292.73
2018-02-13T08:37:12.269Z,100289.92
2018-02-13T08:39:39.784Z,100292.34
2018-02-13T08:42:07.216Z,100290.09
2018-02-13T08:44:34.702Z,100290.30
2018-02-13T08:47:02.245Z,100293.14
2018-02-13T08:49:29.819Z,100288.09
2018-02-13T08:51:57.283Z,100282.70
2018-02-13T08:54:24.805Z,100285.44
2018-02-13T08:56:52.316Z,100281.09
2018-02-13T08:59:20.010Z,100276.31
2018-02-13T09:01:47.559Z,100280.91
2018-02-13T09:04:15.122Z,100267.78
2018-02-13T09:06:42.591Z,100269.27
2018-02-13T09:09:10.090Z,100274.16
2018-02-13T09:11:37.598Z,100262.16
2018-02-13T09:14:05.090Z,100260.24
2018-02-13T09:16:32.585Z,100261.61
2018-02-13T09:19:00.068Z,100263.86
2018-02-13T09:21:27.538Z,100265.94
2018-02-13T09:23:55.088Z,100267.64
2018-02-13T09:26:22.614Z,100267.51
2018-02-13T09:28:50.100Z,100262.84
2018-02-13T09:31:17.600Z,100259.67
2018-02-13T09:33:45.066Z,100251.31
2018-02-13T09:36:12.536Z,100254.83
2018-02-13T09:38:39.993Z,100246.66
2018-02-13T09:41:07.469Z,100252.29
2018-02-13T09:43:34.992Z,100250.44
2018-02-13T09:46:02.485Z,100244.91
2018-02-13T09:48:29.997Z,100247.18
2018-02-13T09:50:57.491Z,100251.36
2018-02-13T09:53:24.967Z,100252.08
2018-02-13T09:55:52.433Z,100244.09
2018-02-13T09:58:19.913Z,100246.36
2018-02-13T10:00:47.388Z,100248.77
2018-02-13T10:03:14.865Z,100243.27
2018-02-13T10:05:42.340Z,100253.08
2018-02-13T10:08:09.828Z,100252.28
2018-02-13T10:10:37.326Z,100246.91
2018-02-13T10:13:04.981Z,100255.66
2018-02-13T10:15:32.470Z,100249.23
2018-02-13T10:17:59.959Z,100247.59
2018-02-13T10:20:27.441Z,100235.80
2018-02-13T10:22:54.960Z,100236.66
2018-02-13T10:25:22.425Z,100247.61
2018-02-13T10:27:49.944Z,100238.50
2018-02-13T10:30:17.422Z,100233.17
2018-02-13T10:32:44.908Z,100232.22
2018-02-13T10:35:12.378Z,100224.92
2018-02-13T10:37:39.844Z,100219.30
2018-02-13T10:40:07.365Z,100225.00
2018-02-13T10:42:34.843Z,100225.53
2018-02-13T10:45:02.316Z,100217.69
2018-02-13T10:47:29.786Z,100222.35
2018-02-13T10:49:57.278Z,100216.24
2018-02-13T10:52:24.757Z,100218.41
2018-02-13T10:54:52.293Z,100220.87
2018-02-13T10:57:19.756Z,100216.41
2018-02-13T10:59:47.338Z,100215.20
2018-02-13T11:02:20.390Z,100199.05
2018-02-13T11:04:47.880Z,100203.28
2018-02-13T11:07:15.400Z,100206.93
2018-02-13T11:09:42.903Z,100203.20
2018-02-13T11:12:10.420Z,100191.88
2018-02-13T11:14:37.917Z,100192.16
2018-02-13T11:17:05.847Z,100184.66
2018-02-13T11:19:33.334Z,100181.53
2018-02-13T11:22:00.814Z,100181.95
2018-02-13T11:24:28.291Z,100178.33
2018-02-13T11:26:55.846Z,100172.34
2018-02-13T11:29:23.417Z,100169.23
2018-02-13T11:31:50.993Z,100173.77
2018-02-13T11:34:18.474Z,100171.73
2018-02-13T11:36:46.029Z,100169.55
2018-02-13T11:39:13.518Z,100167.48
2018-02-13T11:41:41.090Z,100166.98
2018-02-13T11:44:08.658Z,100162.67
2018-02-13T11:46:36.145Z,100160.13
2018-02-13T11:49:03.620Z,100154.45
2018-02-13T11:51:31.142Z,100149.73
2018-02-13T11:53:58.637Z,100148.16
2018-02-13T11:56:26.236Z,100142.45
2018-02-13T11:58:53.713Z,100142.94
2018-02-13T12:01:21.209Z,100145.52
2018-02-13T12:03:48.681Z,100137.91
2018-02-13T12:06:16.143Z,100132.80
2018-02-13T12:08:43.612Z,100136.64
2018-02-13T12:11:11.105Z,100133.00
2018-02-13T12:13:38.605Z,100132.32
2018-02-13T12:16:06.087Z,100127.03
2018-02-13T12:18:33.569Z,100124.33
2018-02-13T12:21:01.035Z,100124.72
2018-02-13T12:23:28.509Z,100119.92
2018-02-13T12:25:55.976Z,100125.27
2018-02-13T12:28:23.544Z,100118.87
2018-02-13T12:30:51.018Z,100122.80
2018-02-13T12:33:18.481Z,100114.95
2018-02-13T12:35:45.982Z,100107.54
2018-02-13T12:38:13.509Z,100109.48
2018-02-13T12:40:40.981Z,100112.67
2018-02-13T12:43:08.485Z,100113.79
2018-02-13T12:45:36.066Z,100110.02
2018-02-13T12:48:03.528Z,100096.82
2018-02-13T12:50:31.004Z,100093.98
2018-02-13T12:52:58.531Z,100095.38
2018-02-13T12:55:26.025Z,100095.00
2018-02-13T12:57:53.574Z,100090.72
2018-02-13T13:00:21.047Z,100092.81
2018-02-13T13:02:48.506Z,100091.27
2018-02-13T13:05:15.980Z,100086.82
2018-02-13T13:07:43.554Z,100085.28
2018-02-13T13:10:11.013Z,100087.09
2018-02-13T13:12:38.501Z,100076.55
2018-02-13T13:15:05.978Z,100086.80
2018-02-13T13:17:33.443Z,100086.75
2018-02-13T13:20:01.010Z,100086.36
2018-02-13T13:22:28.490Z,100084.44
2018-02-13T13:24:56.008Z,100077.86
2018-02-13T13:27:23.524Z,100081.77
2018-02-13T13:29:50.985Z,100079.73
2018-02-13T13:32:18.571Z,100085.52
2018-02-13T13:34:46.037Z,100075.63
2018-02-13T13:37:13.500Z,100073.31
2018-02-13T13:39:41.069Z,100069.57
2018-02-13T13:42:08.657Z,100063.95
2018-02-13T13:44:36.226Z,100069.42
2018-02-13T13:47:03.696Z,100057.50
2018-02-13T13:49:31.261Z,100052.93
2018-02-13T13:51:58.748Z,100052.33
2018-02-13T13:54:26.235Z,100048.39
2018-02-13T13:56:53.700Z,100048.23
2018-02-13T13:59:21.252Z,100047.58
2018-02-13T14:01:48.873Z,100039.70
2018-02-13T14:04:16.789Z,100038.11
2018-02-13T14:06:44.291Z,100034.23
2018-02-13T14:09:11.818Z,100023.81
2018-02-13T14:11:39.338Z,100028.90
2018-02-13T14:14:06.838Z,100022.64
2018-02-13T14:16:34.318Z,100027.81
2018-02-13T14:19:01.968Z,100016.25
2018-02-13T14:21:29.461Z,100021.89
2018-02-13T14:23:56.968Z,100019.45
2018-02-13T14:26:24.668Z,100018.51
2018-02-13T14:28:52.398Z,100024.61
2018-02-13T14:31:20.190Z,100021.38
2018-02-13T14:33:47.750Z,100028.73
2018-02-13T14:36:15.379Z,100026.08
2018-02-13T14:38:42.936Z,100026.22
2018-02-13T14:41:10.537Z,100034.61
2018-02-13T14:43:38.079Z,100027.02
2018-02-13T14:46:05.734Z,100029.20
2018-02-13T14:48:33.197Z,100028.13
2018-02-13T14:51:00.759Z,100026.05
2018-02-13T14:53:28.436Z,100027.75
2018-02-13T14:55:55.986Z,100028.34
2018-02-13T14:58:23.494Z,100026.22
2018-02-13T15:00:51.015Z,100025.22
2018-02-13T15:03:18.531Z,100031.77
2018-02-13T15:05:46.102Z,100030.75
2018-02-13T15:08:13.688Z,100025.98
2018-02-13T15:10:41.464Z,100026.69
2018-02-13T15:13:08.995Z,100029.94
2018-02-13T15:15:36.899Z,100034.45
2018-02-13T15:18:06.873Z,100043.52
2018-02-13T15:20:34.336Z,100036.97
2018-02-13T15:23:02.609Z,100039.09
2018-02-13T15:25:30.073Z,100045.41
2018-02-13T15:27:57.579Z,100051.09
2018-02-13T15:30:25.159Z,100045.66
2018-02-13T15:32:52.645Z,100053.14
2018-02-13T15:35:20.132Z,100057.81
2018-02-13T15:37:47.642Z,100055.11
2018-02-13T15:40:15.193Z,100062.91
2018-02-13T15:42:42.789Z,100064.16
2018-02-13T15:45:10.377Z,100056.36
2018-02-13T15:47:39.608Z,100067.11
2018-02-13T15:50:07.675Z,100068.27
2018-02-13T15:52:35.178Z,100073.80
2018-02-13T15:55:02.827Z,100070.75
2018-02-13T15:57:30.497Z,100069.45
2018-02-13T15:59:57.997Z,100068.06
2018-02-13T16:02:25.514Z,100068.38
2018-02-13T16:04:53.026Z,100072.56
2018-02-13T16:07:20.480Z,100079.72
2018-02-13T16:09:47.940Z,100084.31
2018-02-13T16:12:15.533Z,100078.50
2018-02-13T16:14:42.998Z,100077.70
2018-02-13T16:17:10.541Z,100078.06
2018-02-13T16:19:38.007Z,100077.31
2018-02-13T16:22:05.488Z,100078.95
2018-02-13T16:24:32.990Z,100073.88
2018-02-13T16:27:00.445Z,100078.34
2018-02-13T16:29:27.981Z,100077.42
2018-02-13T16:31:55.463Z,100075.31
2018-02-13T16:34:22.926Z,100078.67
2018-02-13T16:36:50.393Z,100078.84
2018-02-13T16:39:18.200Z,100074.47
2018-02-13T16:41:45.660Z,100078.75
2018-02-13T16:44:13.140Z,100080.58
2018-02-13T16:46:40.638Z,100080.51
2018-02-13T16:49:08.174Z,100077.65
2018-02-13T16:51:35.683Z,100084.72
2018-02-13T16:54:03.151Z,100083.53
2018-02-13T16:56:30.609Z,100090.44
2018-02-13T16:58:58.073Z,100085.36
2018-02-13T17:01:25.583Z,100094.72
2018-02-13T17:03:53.020Z,100096.89
2018-02-13T17:06:20.487Z,100092.24
2018-02-13T17:08:47.974Z,100093.44
2018-02-13T17:11:15.449Z,100096.97
2018-02-13T17:13:42.912Z,100090.72
2018-02-13T17:16:10.433Z,100089.23
2018-02-13T17:18:37.998Z,100088.27
2018-02-13T17:21:05.465Z,100089.36
2018-02-13T17:23:32.927Z,100085.82
2018-02-13T17:26:00.401Z,100087.24
2018-02-13T17:28:27.862Z,100087.84
2018-02-13T17:30:55.368Z,100085.67
2018-02-13T17:33:22.843Z,100084.45
2018-02-13T17:35:50.335Z,100083.48
2018-02-13T17:38:17.811Z,100087.65
2018-02-13T17:40:45.281Z,100090.31
2018-02-13T17:43:12.741Z,100083.53
2018-02-13T17:45:40.202Z,100087.39
2018-02-13T17:48:07.701Z,100093.51
2018-02-13T17:50:35.157Z,100096.76
2018-02-13T17:53:02.647Z,100094.00
2018-02-13T17:55:30.135Z,100090.88
2018-02-13T17:57:57.689Z,100096.44
2018-02-13T18:00:25.149Z,100098.32
2018-02-13T18:02:52.624Z,100098.29
2018-02-13T18:05:20.089Z,100099.45
2018-02-13T18:07:47.556Z,100101.34
2018-02-13T18:10:15.122Z,100104.56
2018-02-13T18:12:42.589Z,100096.17
2018-02-13T18:15:10.079Z,100098.21
2018-02-13T18:17:37.541Z,100097.58
2018-02-13T18:20:05.008Z,100098.61
2018-02-13T18:22:32.941Z,100099.21
2018-02-13T18:25:01.014Z,100102.88
2018-02-13T18:27:28.479Z,100090.45
2018-02-13T18:29:55.963Z,100105.04
2018-02-13T18:32:23.441Z,100098.17
2018-02-13T18:34:50.959Z,100099.69
2018-02-13T18:37:18.429Z,100101.09
2018-02-13T18:39:45.911Z,100098.56
2018-02-13T18:42:13.404Z,100097.97
2018-02-13T18:44:40.871Z,100096.37
2018-02-13T18:47:08.348Z,100097.59
2018-02-13T18:49:35.809Z,100102.59
2018-02-13T18:52:03.410Z,100091.27
2018-02-13T18:54:30.893Z,100096.14
2018-02-13T18:56:58.455Z,100098.89
2018-02-13T18:59:25.945Z,100101.65
2018-02-13T19:01:53.463Z,100102.16
2018-02-13T19:04:20.931Z,100098.95
2018-02-13T19:06:48.410Z,100104.05
2018-02-13T19:09:15.932Z,100103.05
2018-02-13T19:11:43.426Z,100107.12
2018-02-13T19:14:10.920Z,100102.59
2018-02-13T19:16:38.382Z,100105.02
2018-02-13T19:19:05.886Z,100097.23
2018-02-13T19:21:33.379Z,100099.25
2018-02-13T19:24:00.842Z,100105.11
2018-02-13T19:26:28.420Z,100109.84
2018-02-13T19:28:55.958Z,100112.42
2018-02-13T19:31:23.447Z,100104.52
2018-02-13T19:33:50.927Z,100115.94
2018-02-13T19:36:18.483Z,100112.44
2018-02-13T19:38:46.046Z,100114.36
2018-02-13T19:41:13.539Z,100116.30
2018-02-13T19:43:41.054Z,100117.78
2018-02-13T19:46:08.566Z,100111.92
2018-02-13T19:48:36.142Z,100118.64
2018-02-13T19:51:03.612Z,100119.61
2018-02-13T19:53:31.140Z,100119.83
2018-02-13T19:55:58.690Z,100116.17
2018-02-13T19:58:26.193Z,100115.39
2018-02-13T20:00:53.742Z,100112.67
2018-02-13T20:03:21.252Z,100113.78
2018-02-13T20:05:48.725Z,100113.08
2018-02-13T20:08:16.244Z,100116.34
2018-02-13T20:10:43.726Z,100120.88
2018-02-13T20:13:11.253Z,100120.79
2018-02-13T20:17:44.080Z,100116.94
2018-02-13T20:20:11.534Z,100119.18
2018-02-13T20:22:39.018Z,100116.24
2018-02-13T20:25:06.533Z,100122.81
2018-02-13T20:27:33.995Z,100124.73
2018-02-13T20:30:01.574Z,100124.31
2018-02-13T20:32:29.095Z,100122.41
2018-02-13T20:34:56.576Z,100125.73
2018-02-13T20:37:24.122Z,100131.63
2018-02-13T20:42:58.144Z,100130.59
2018-02-13T20:47:38.676Z,100131.19
2018-02-13T20:53:28.499Z,100143.59
2018-02-13T20:55:56.030Z,100142.69
2018-02-13T20:58:23.494Z,100139.25
2018-02-13T21:00:51.100Z,100140.27
2018-02-13T21:03:18.564Z,100142.59
2018-02-13T21:05:46.036Z,100143.41
2018-02-13T21:08:13.574Z,100145.60
2018-02-13T21:10:41.039Z,100152.07
2018-02-13T21:13:08.552Z,100143.28
2018-02-13T21:15:36.175Z,100144.20
2018-02-13T21:18:03.814Z,100150.23
2018-02-13T21:20:31.306Z,100149.80
2018-02-13T21:22:58.783Z,100146.88
2018-02-13T21:25:26.307Z,100148.17
2018-02-13T21:27:53.808Z,100154.12
2018-02-13T21:30:21.308Z,100144.64
2018-02-13T21:32:48.769Z,100144.50
2018-02-13T21:35:16.323Z,100147.63
2018-02-13T21:37:43.871Z,100152.08
2018-02-13T21:40:11.403Z,100149.89
2018-02-13T21:42:38.880Z,100149.67
2018-02-13T21:45:06.483Z,100146.34
2018-02-13T21:47:33.990Z,100143.83
2018-02-13T21:50:01.485Z,100147.34
2018-02-13T21:52:28.996Z,100143.62
2018-02-13T21:54:56.563Z,100143.30
2018-02-13T21:57:24.127Z,100143.88
2018-02-13T21:59:51.597Z,100147.42
2018-02-13T22:02:19.176Z,100149.43
2018-02-13T22:04:46.645Z,100153.58
2018-02-13T22:07:14.166Z,100157.60
2018-02-13T22:09:41.642Z,100155.70
2018-02-13T22:12:09.115Z,100152.27
2018-02-13T22:14:36.581Z,100152.86
2018-02-13T22:17:04.088Z,100156.47
2018-02-13T22:19:31.625Z,100153.33
2018-02-13T22:21:59.881Z,100150.70
2018-02-13T22:24:27.434Z,100156.43
2018-02-13T22:26:55.052Z,100160.95
2018-02-13T22:29:22.521Z,100157.92
2018-02-13T22:31:49.994Z,100158.41
2018-02-13T22:34:17.488Z,100152.53
2018-02-13T22:36:44.977Z,100153.11
2018-02-13T22:39:12.444Z,100149.75
2018-02-13T22:41:40.145Z,100152.48
2018-02-13T22:44:07.654Z,100154.89
2018-02-13T22:46:35.279Z,100151.39
2018-02-13T22:49:02.853Z,100152.08
2018-02-13T22:51:30.323Z,100158.60
2018-02-13T22:53:57.806Z,100165.38
2018-02-13T22:56:25.364Z,100163.34
2018-02-13T22:58:52.893Z,100163.80
2018-02-13T23:01:20.369Z,100165.34
2018-02-13T23:03:47.862Z,100164.25
2018-02-13T23:06:15.337Z,100158.27
2018-02-13T23:08:42.834Z,100162.08
2018-02-13T23:11:10.333Z,100159.58
2018-02-13T23:13:37.813Z,100167.16
2018-02-13T23:16:05.318Z,100159.98
2018-02-13T23:18:32.791Z,100163.80
2018-02-13T23:21:00.277Z,100164.82
2018-02-13T23:23:27.783Z,100159.13
2018-02-13T23:25:55.325Z,100163.06
2018-02-13T23:28:22.817Z,100167.80
2018-02-13T23:30:50.344Z,100165.45
2018-02-13T23:33:17.842Z,100164.26
2018-02-13T23:35:45.402Z,100163.06
2018-02-13T23:38:12.896Z,100162.66
2018-02-13T23:40:40.377Z,100161.93
2018-02-13T23:43:07.915Z,100159.52
2018-02-13T23:45:35.457Z,100164.72
2018-02-13T23:48:02.945Z,100170.59
2018-02-13T23:50:30.431Z,100164.39
2018-02-13T23:52:58.029Z,100179.43
2018-02-13T23:55:25.555Z,100167.22
2018-02-13T23:57:53.037Z,100172.26
